createdAt,value
2018-09-28T00:01:47.237Z,3.45
2018-09-28T00:05:47.785Z,4.22
2018-09-28T00:11:48.288Z,3.66
2018-09-28T00:17:48.808Z,3.98
2018-09-28T00:21:49.300Z,3.48
2018-09-28T00:27:49.820Z,3.52
2018-09-28T00:31:50.354Z,4.15
2018-09-28T00:37:50.851Z,3.19
2018-09-28T00:43:51.307Z,2.66
2018-09-28T00:47:51.865Z,2.86
2018-09-28T00:53:52.474Z,3.08
2018-09-28T00:57:53.063Z,2.49
2018-09-28T01:03:53.574Z,2.14
2018-09-28T01:09:54.106Z,3.06
2018-09-28T01:13:54.706Z,4.54
2018-09-28T01:19:55.343Z,3.64
2018-09-28T01:23:55.872Z,3.44
2018-09-28T01:25:56.467Z,4.08
2018-09-28T01:29:57.089Z,3.17
2018-09-28T01:35:57.618Z,3.42
2018-09-28T01:39:58.081Z,2.77
2018-09-28T01:45:58.687Z,2.93
2018-09-28T01:49:59.106Z,3.58
2018-09-28T01:51:59.561Z,2.45
2018-09-28T01:56:00.108Z,2.85
2018-09-28T02:02:00.636Z,3.86
2018-09-28T02:06:01.075Z,2.93
2018-09-28T02:12:01.614Z,3.02
2018-09-28T02:18:02.111Z,3.71
2018-09-28T02:22:02.641Z,3.8
2018-09-28T02:28:03.214Z,4.76
2018-09-28T02:32:03.665Z,3.69
2018-09-28T02:38:04.200Z,2.66
2018-09-28T02:44:04.801Z,3.05
2018-09-28T02:48:05.264Z,2.74
2018-09-28T02:54:05.730Z,3.22
2018-09-28T02:58:06.249Z,2.57
2018-09-28T03:04:06.727Z,3.31
2018-09-28T03:10:07.354Z,3.64
2018-09-28T03:14:07.945Z,3.15
2018-09-28T03:20:08.482Z,3.1
2018-09-28T03:24:09.054Z,3.47
2018-09-28T03:26:09.446Z,2.56
2018-09-28T03:30:10.257Z,3.3
2018-09-28T03:36:10.773Z,3.16
2018-09-28T03:40:11.368Z,3.35
2018-09-28T03:46:12.345Z,6.36
2018-09-28T03:50:12.829Z,3.23
2018-09-28T03:52:13.266Z,2.78
2018-09-28T03:56:13.764Z,2.76
2018-09-28T04:02:14.270Z,2.51
2018-09-28T04:06:14.817Z,3.57
2018-09-28T04:12:15.485Z,2.92
2018-09-28T04:18:15.961Z,2.66
2018-09-28T04:22:16.478Z,3.1
2018-09-28T04:28:17.029Z,3.69
2018-09-28T04:32:17.574Z,3.45
2018-09-28T04:38:18.158Z,4.33
2018-09-28T04:44:18.822Z,3.71
2018-09-28T04:48:19.360Z,3.16
2018-09-28T04:54:19.899Z,3.23
2018-09-28T04:58:20.432Z,4.48
2018-09-28T05:04:21.069Z,4.06
2018-09-28T05:10:21.600Z,4.37
2018-09-28T05:14:22.182Z,13.29
2018-09-28T05:20:22.783Z,6.33
2018-09-28T05:24:23.366Z,5.39
2018-09-28T05:26:23.915Z,6.28
2018-09-28T05:30:24.675Z,5.39
2018-09-28T05:36:25.147Z,6.44
2018-09-28T05:40:25.663Z,6.18
2018-09-28T05:46:26.256Z,4.78
2018-09-28T05:50:26.762Z,4.86
2018-09-28T05:52:27.160Z,7.03
2018-09-28T05:56:27.677Z,4.72
2018-09-28T06:02:28.209Z,5.74
2018-09-28T06:06:28.701Z,5.55
2018-09-28T06:12:29.248Z,6.38
2018-09-28T06:16:29.819Z,8.92
2018-09-28T06:18:30.212Z,4.73
2018-09-28T06:22:30.789Z,6.88
2018-09-28T06:28:31.219Z,5.56
2018-09-28T06:32:31.709Z,6.29
2018-09-28T06:38:32.305Z,5.27
2018-09-28T06:44:32.853Z,8.43
2018-09-28T06:48:33.384Z,8.97
2018-09-28T06:54:33.900Z,10.62
2018-09-28T06:58:34.414Z,10.02
2018-09-28T07:04:35.044Z,9.43
2018-09-28T07:10:35.535Z,5.02
2018-09-28T07:14:36.128Z,5.24
2018-09-28T07:20:36.713Z,9.86
2018-09-28T07:24:37.264Z,10.49
2018-09-28T07:26:37.696Z,9.02
2018-09-28T07:30:38.106Z,15.28
2018-09-28T07:36:38.703Z,7.72
2018-09-28T07:40:39.137Z,10.25
2018-09-28T07:46:39.647Z,8.37
2018-09-28T07:50:40.127Z,9.83
2018-09-28T07:52:40.511Z,14.05
2018-09-28T07:56:41.034Z,12.12
2018-09-28T08:02:41.592Z,14.43
2018-09-28T08:06:42.132Z,16.88
2018-09-28T08:12:42.650Z,13.8
2018-09-28T08:16:43.163Z,10.94
2018-09-28T08:18:43.577Z,10.85
2018-09-28T08:22:44.100Z,8.95
2018-09-28T08:28:44.647Z,9.07
2018-09-28T08:32:45.145Z,6.72
2018-09-28T08:38:45.784Z,6.94
2018-09-28T08:44:46.339Z,7.49
2018-09-28T08:48:46.806Z,8.61
2018-09-28T08:54:47.287Z,5.91
2018-09-28T08:58:47.741Z,5.88
2018-09-28T09:04:48.207Z,6.42
2018-09-28T09:10:48.691Z,4.25
2018-09-28T09:14:49.190Z,6.2
2018-09-28T09:20:49.837Z,4.81
2018-09-28T09:24:50.286Z,5.86
2018-09-28T09:26:50.781Z,4.69
2018-09-28T09:30:51.287Z,5.59
2018-09-28T09:36:51.802Z,4.43
2018-09-28T09:40:52.332Z,4.86
2018-09-28T09:46:52.905Z,4.78
2018-09-28T09:50:53.751Z,4.88
2018-09-28T09:52:54.162Z,5.47
2018-09-28T09:56:54.680Z,4.7
2018-09-28T10:02:55.260Z,5.67
2018-09-28T10:06:55.890Z,3.47
2018-09-28T10:12:56.683Z,4.2
2018-09-28T10:16:57.245Z,5.05
2018-09-28T10:18:57.631Z,5.76
2018-09-28T10:22:58.193Z,6.56
2018-09-28T10:28:58.725Z,4.68
2018-09-28T10:32:59.290Z,3.72
2018-09-28T10:38:59.818Z,5.91
2018-09-28T10:45:00.366Z,5.46
2018-09-28T10:49:00.898Z,6.71
2018-09-28T10:55:01.346Z,7.2
2018-09-28T10:59:01.869Z,6.99
2018-09-28T11:05:02.725Z,6.09
2018-09-28T11:11:03.322Z,5.05
2018-09-28T11:15:03.915Z,4.97
2018-09-28T11:21:04.385Z,4.5
2018-09-28T11:25:04.836Z,3.62
2018-09-28T11:27:05.463Z,4.3
2018-09-28T11:31:05.951Z,4.41
2018-09-28T11:37:06.502Z,4.44
2018-09-28T11:41:07.037Z,3.62
2018-09-28T11:47:07.591Z,3.89
2018-09-28T11:51:08.185Z,4.2
2018-09-28T11:53:08.570Z,4.08
2018-09-28T11:57:09.199Z,4.05
2018-09-28T12:03:09.664Z,5.62
2018-09-28T12:07:10.181Z,5.33
2018-09-28T12:13:10.625Z,2.89
2018-09-28T12:19:11.225Z,4.13
2018-09-28T12:23:11.710Z,4.74
2018-09-28T12:29:12.184Z,3.79
2018-09-28T12:33:12.668Z,6.2
2018-09-28T12:39:13.272Z,2.74
2018-09-28T12:45:14.233Z,2.91
2018-09-28T12:49:14.722Z,3.57
2018-09-28T12:55:15.165Z,3.62
2018-09-28T12:59:15.681Z,4.23
2018-09-28T13:01:16.494Z,3.64
2018-09-28T13:05:16.805Z,3.16
2018-09-28T13:11:17.335Z,2.84
2018-09-28T13:15:18.476Z,2.67
2018-09-28T13:21:18.847Z,3.32
2018-09-28T13:25:19.507Z,3.08
2018-09-28T13:27:19.968Z,3.16
2018-09-28T13:31:20.480Z,2.97
2018-09-28T13:37:20.997Z,4.27
2018-09-28T13:41:21.581Z,3.35
2018-09-28T13:47:22.075Z,3.24
2018-09-28T13:53:22.720Z,3.26
2018-09-28T13:57:23.287Z,3.54
2018-09-28T14:03:23.793Z,3.53
2018-09-28T14:07:24.382Z,4.23
2018-09-28T14:13:24.888Z,2.93
2018-09-28T14:19:25.471Z,3.84
2018-09-28T14:23:25.935Z,4.24
2018-09-28T14:29:26.600Z,5.14
2018-09-28T14:33:27.123Z,5.26
2018-09-28T14:35:27.590Z,3.72
2018-09-28T14:39:28.119Z,4.95
2018-09-28T14:45:29.288Z,3.33
2018-09-28T14:49:29.774Z,3.52
2018-09-28T14:55:30.357Z,3.49
2018-09-28T14:59:30.943Z,4.59
2018-09-28T15:01:31.619Z,4.47
2018-09-28T15:05:32.015Z,5.08
2018-09-28T15:11:32.559Z,3.96
2018-09-28T15:15:33.097Z,3.89
2018-09-28T15:21:33.720Z,3.11
2018-09-28T15:27:34.349Z,3.26
2018-09-28T15:31:34.853Z,2.95
2018-09-28T15:37:35.400Z,3.87
2018-09-28T15:41:35.934Z,4.13
2018-09-28T15:47:36.523Z,4.57
2018-09-28T15:53:37.145Z,3.74
2018-09-28T15:57:37.676Z,3.94
2018-09-28T16:03:38.186Z,4.45
2018-09-28T16:07:38.675Z,3.62
2018-09-28T16:09:39.161Z,3.81
2018-09-28T16:13:39.665Z,5.17
2018-09-28T16:19:40.261Z,4.11
2018-09-28T16:23:40.839Z,3.99
2018-09-28T16:29:41.410Z,5.31
2018-09-28T16:33:41.917Z,5.5
2018-09-28T16:35:42.400Z,4.42
2018-09-28T16:39:42.869Z,4.01
2018-09-28T16:45:43.429Z,3.35
2018-09-28T16:49:43.983Z,4.47
2018-09-28T16:55:44.546Z,3.98
2018-09-28T17:01:45.062Z,5.39
2018-09-28T17:05:45.607Z,4
2018-09-28T17:11:46.075Z,4.02
2018-09-28T17:15:46.636Z,4.35
2018-09-28T17:21:47.048Z,3.89
2018-09-28T17:27:47.602Z,4.01
2018-09-28T17:31:48.094Z,4.34
2018-09-28T17:37:48.809Z,3.3
2018-09-28T17:41:49.170Z,4.41
2018-09-28T17:43:49.634Z,4.1
2018-09-28T17:47:50.212Z,4.34
2018-09-28T17:53:50.805Z,6.65
2018-09-28T17:57:51.316Z,6.89
2018-09-28T18:03:51.820Z,5.7
2018-09-28T18:07:52.284Z,6.82
2018-09-28T18:09:52.795Z,7.88
2018-09-28T18:13:53.353Z,7.01
2018-09-28T18:19:53.860Z,10.16
2018-09-28T18:23:54.345Z,8.56
2018-09-28T18:29:54.892Z,9.96
2018-09-28T18:35:55.495Z,5.7
2018-09-28T18:39:56.087Z,5.44
2018-09-28T18:45:56.643Z,5.2
2018-09-28T18:49:57.126Z,5.2
2018-09-28T18:55:57.632Z,5.23
2018-09-28T19:01:58.217Z,5.49
2018-09-28T19:05:58.902Z,5.53
2018-09-28T19:11:59.444Z,4.72
2018-09-28T19:15:59.933Z,5.41
2018-09-28T19:18:00.488Z,4.8
2018-09-28T19:22:02.324Z,5.53
2018-09-28T19:28:01.632Z,6.32
2018-09-28T19:32:01.964Z,6.75
2018-09-28T19:38:02.547Z,7.53
2018-09-28T19:42:03.120Z,5.75
2018-09-28T19:44:03.596Z,6.65
2018-09-28T19:48:04.193Z,6.25
2018-09-28T19:54:04.673Z,7.39
2018-09-28T19:58:05.166Z,6.7
2018-09-28T20:04:05.722Z,6.54
2018-09-28T20:08:06.143Z,8.49
2018-09-28T20:10:06.712Z,8.19
2018-09-28T20:14:07.238Z,6.34
2018-09-28T20:20:07.671Z,5.47
2018-09-28T20:24:08.406Z,6.32
2018-09-28T20:30:08.851Z,5.91
2018-09-28T20:36:09.567Z,6.07
2018-09-28T20:40:10.057Z,6.39
2018-09-28T20:46:10.663Z,7.69
2018-09-28T20:50:11.269Z,6.82
2018-09-28T20:56:12.279Z,6.07
2018-09-28T21:02:12.826Z,7
2018-09-28T21:06:13.427Z,6.48
2018-09-28T21:12:13.987Z,6.11
2018-09-28T21:16:14.540Z,4.76
2018-09-28T21:18:15.031Z,5.94
2018-09-28T21:22:15.542Z,6.08
2018-09-28T21:28:16.117Z,4.96
2018-09-28T21:32:16.635Z,4.69
2018-09-28T21:38:17.200Z,5.39
2018-09-28T21:42:17.743Z,5.56
2018-09-28T21:44:18.207Z,6.48
2018-09-28T21:48:18.768Z,6.44
2018-09-28T21:54:19.331Z,5.23
2018-09-28T21:58:19.846Z,4.35
2018-09-28T22:04:20.533Z,3.76
2018-09-28T22:10:21.000Z,5.57
2018-09-28T22:14:21.539Z,6.97
2018-09-28T22:20:22.110Z,5.65
2018-09-28T22:24:22.698Z,6.83
2018-09-28T22:30:23.439Z,4.14
2018-09-28T22:36:24.454Z,4.57
2018-09-28T22:40:25.061Z,4.13
2018-09-28T22:46:25.539Z,4.96
2018-09-28T22:50:26.085Z,6.1
2018-09-28T22:56:26.798Z,6.59
2018-09-28T23:02:27.259Z,4.48
2018-09-28T23:06:27.815Z,4.81
2018-09-28T23:12:28.324Z,4.82
2018-09-28T23:16:28.891Z,4.57
2018-09-28T23:18:29.351Z,4.15
2018-09-28T23:22:29.926Z,4
2018-09-28T23:28:30.490Z,5.32
2018-09-28T23:32:31.050Z,5.02
2018-09-28T23:38:31.560Z,4.15
2018-09-28T23:42:32.079Z,4.28
2018-09-28T23:44:32.573Z,4.88
2018-09-28T23:48:33.042Z,5.24
2018-09-28T23:54:33.557Z,4.21
2018-09-28T23:58:34.126Z,4.37
